Time;durP1;ratioP1;P1;durP2;ratioP2;P2;SDS_P1;SDS_P2;PMS_P1;PMS_P2;Temp;Humidity;BMP_temperature;BMP_pressure;BME280_temperature;BME280_humidity;BME280_pressure;Samples;Min_cycle;Max_cycle;Signal;HPM_P1;HPM_P2
2023/04/27 00:01:13;;;;;;;14.77;9.02;;;2.50;99.90;;;;;;6162294;23;20024;-85
2023/04/27 00:03:40;;;;;;;12.20;8.40;;;3.00;99.90;;;;;;6187710;23;20031;-85
2023/04/27 00:06:07;;;;;;;12.68;8.95;;;1.80;99.90;;;;;;6186754;23;20043;-85
2023/04/27 00:08:33;;;;;;;16.13;9.65;;;1.80;99.90;;;;;;6213885;23;20079;-85
2023/04/27 00:10:59;;;;;;;15.63;10.05;;;1.90;99.90;;;;;;6157131;23;20067;-85
2023/04/27 00:13:25;;;;;;;15.15;10.38;;;1.70;99.90;;;;;;6159302;23;20033;-84
2023/04/27 00:15:51;;;;;;;18.88;10.27;;;2.20;99.90;;;;;;6183873;23;20337;-84
2023/04/27 00:18:17;;;;;;;15.63;9.77;;;1.90;99.90;;;;;;6159551;23;20020;-86
2023/04/27 00:20:43;;;;;;;16.52;10.98;;;2.80;99.90;;;;;;6158410;23;20005;-85
2023/04/27 00:23:09;;;;;;;15.07;10.05;;;3.30;99.90;;;;;;6158545;23;20020;-84
2023/04/27 00:25:35;;;;;;;15.95;10.60;;;2.00;99.90;;;;;;6183745;23;20012;-85
2023/04/27 00:28:01;;;;;;;18.23;10.02;;;3.20;99.90;;;;;;6159321;23;20377;-85
2023/04/27 00:30:27;;;;;;;13.27;9.60;;;3.20;99.90;;;;;;6183505;23;20036;-85
2023/04/27 00:32:52;;;;;;;15.07;10.25;;;2.30;99.90;;;;;;6183999;23;20013;-84
2023/04/27 00:35:18;;;;;;;13.30;9.55;;;3.30;99.90;;;;;;6183207;23;20039;-85
2023/04/27 00:37:44;;;;;;;15.15;9.88;;;2.40;99.90;;;;;;6183815;23;20335;-85
2023/04/27 00:40:10;;;;;;;12.85;10.45;;;2.50;99.90;;;;;;6185203;23;20308;-85
2023/04/27 00:42:36;;;;;;;16.38;10.77;;;2.50;99.90;;;;;;6184401;23;20009;-85
2023/04/27 00:45:04;;;;;;;14.15;10.05;;;2.50;99.90;;;;;;6159253;23;20017;-85
2023/04/27 00:47:30;;;;;;;12.70;9.40;;;2.60;99.90;;;;;;6183688;23;20032;-85
2023/04/27 00:49:55;;;;;;;15.18;10.30;;;2.70;99.90;;;;;;6183279;23;20013;-85
2023/04/27 00:52:21;;;;;;;13.80;10.43;;;3.50;99.90;;;;;;6185668;23;20013;-85
2023/04/27 00:54:50;;;;;;;14.18;9.20;;;4.20;99.90;;;;;;6185859;23;20448;-85
2023/04/27 00:57:16;;;;;;;17.02;9.18;;;3.20;99.90;;;;;;6158799;23;20009;-86
2023/04/27 00:59:41;;;;;;;17.75;10.13;;;3.50;99.90;;;;;;6183907;23;20454;-85
2023/04/27 01:02:09;;;;;;;14.73;9.90;;;2.90;99.90;;;;;;6158503;23;20013;-85
2023/04/27 01:04:35;;;;;;;19.42;9.98;;;3.90;99.90;;;;;;6183398;23;20102;-85
2023/04/27 01:07:01;;;;;;;15.25;9.80;;;4.10;99.90;;;;;;6183959;23;20013;-85
2023/04/27 01:09:27;;;;;;;16.13;10.30;;;3.20;99.90;;;;;;6183510;23;20388;-85
2023/04/27 01:11:53;;;;;;;16.50;9.52;;;4.20;99.90;;;;;;6212536;23;20021;-86
2023/04/27 01:14:19;;;;;;;13.82;8.68;;;3.90;99.90;;;;;;6163857;23;20136;-84
2023/04/27 01:16:45;;;;;;;13.20;9.10;;;3.90;99.90;;;;;;6188544;23;20428;-85
2023/04/27 01:19:11;;;;;;;15.88;9.90;;;3.20;99.90;;;;;;6163389;23;20013;-86
2023/04/27 01:21:37;;;;;;;12.38;8.98;;;4.30;99.90;;;;;;6163107;23;20462;-85
2023/04/27 01:24:06;;;;;;;13.77;9.27;;;3.50;99.90;;;;;;6188670;23;20020;-85
2023/04/27 01:26:32;;;;;;;15.63;9.48;;;3.20;99.90;;;;;;6163245;23;20016;-85
2023/04/27 01:28:58;;;;;;;13.02;9.30;;;4.00;99.90;;;;;;6188477;23;20016;-85
2023/04/27 01:31:24;;;;;;;13.73;9.05;;;3.10;99.90;;;;;;6215663;23;20020;-85
2023/04/27 01:33:49;;;;;;;13.00;8.80;;;3.00;99.90;;;;;;6187394;23;20016;-85
2023/04/27 01:36:15;;;;;;;15.43;8.80;;;4.10;99.90;;;;;;6188967;23;20012;-85
2023/04/27 01:38:41;;;;;;;12.27;8.63;;;3.80;99.90;;;;;;6188288;23;20008;-86
2023/04/27 01:41:08;;;;;;;10.70;8.68;;;3.00;99.90;;;;;;6188210;23;20017;-86
2023/04/27 01:43:34;;;;;;;11.50;8.77;;;2.70;99.90;;;;;;6215172;23;20043;-85
2023/04/27 01:46:07;;;;;;;14.68;9.77;;;2.70;99.90;;;;;;6214636;23;20013;-85
2023/04/27 01:48:33;;;;;;;12.85;9.32;;;2.50;99.90;;;;;;6214847;23;20082;-85
2023/04/27 01:50:59;;;;;;;12.43;8.50;;;3.50;99.90;;;;;;6188573;23;20020;-86
2023/04/27 01:53:25;;;;;;;13.43;9.30;;;3.20;99.90;;;;;;6163059;23;20019;-85
2023/04/27 01:55:50;;;;;;;10.75;8.70;;;3.00;99.90;;;;;;6163649;23;20013;-85
2023/04/27 01:58:16;;;;;;;14.45;8.90;;;3.30;99.90;;;;;;6188764;23;20047;-85
2023/04/27 02:00:42;;;;;;;11.68;8.98;;;2.80;99.90;;;;;;6215693;23;20032;-85
2023/04/27 02:03:07;;;;;;;12.00;9.00;;;2.20;99.90;;;;;;6187704;23;20009;-85
2023/04/27 02:05:33;;;;;;;12.02;9.13;;;2.00;99.90;;;;;;6214535;23;20019;-85
2023/04/27 02:07:59;;;;;;;11.57;7.88;;;2.00;99.90;;;;;;6163146;23;20062;-85
2023/04/27 02:10:24;;;;;;;11.70;8.90;;;2.40;99.90;;;;;;6162899;23;20021;-85
2023/04/27 02:12:50;;;;;;;12.13;9.25;;;2.90;99.90;;;;;;6214812;23;20020;-85
2023/04/27 02:15:16;;;;;;;13.38;9.07;;;2.50;99.90;;;;;;6162657;23;20036;-86
2023/04/27 02:17:42;;;;;;;12.38;8.85;;;1.90;99.90;;;;;;6187684;23;20016;-85
2023/04/27 02:20:09;;;;;;;12.15;9.20;;;3.20;99.90;;;;;;6187469;23;20032;-85
2023/04/27 02:22:36;;;;;;;11.55;8.15;;;1.80;99.90;;;;;;6162560;23;20463;-85
2023/04/27 02:25:02;;;;;;;13.00;8.93;;;2.50;99.90;;;;;;6187879;23;20339;-85
2023/04/27 02:27:28;;;;;;;13.45;9.05;;;1.70;99.90;;;;;;6163240;23;20070;-85
2023/04/27 02:29:53;;;;;;;13.70;9.48;;;2.20;99.90;;;;;;6187333;23;20013;-85
2023/04/27 02:32:19;;;;;;;15.65;9.95;;;1.90;99.90;;;;;;6186958;23;20013;-85
2023/04/27 02:34:45;;;;;;;16.23;10.10;;;1.50;99.90;;;;;;6187372;23;20163;-85
2023/04/27 02:37:10;;;;;;;12.90;9.48;;;1.60;99.90;;;;;;6162853;23;20009;-85
2023/04/27 02:39:36;;;;;;;16.30;10.52;;;1.50;99.90;;;;;;6187424;23;20036;-85
2023/04/27 02:42:02;;;;;;;14.77;9.00;;;1.50;99.90;;;;;;6187364;23;20485;-85
2023/04/27 02:44:28;;;;;;;12.40;9.10;;;1.50;99.90;;;;;;6187904;23;20020;-85
2023/04/27 02:46:54;;;;;;;14.60;9.90;;;2.40;99.90;;;;;;6186624;23;20063;-85
2023/04/27 02:49:19;;;;;;;13.25;8.75;;;0.50;99.90;;;;;;6214491;23;20091;-86
2023/04/27 02:51:45;;;;;;;10.85;9.25;;;1.30;99.90;;;;;;6188095;23;20008;-85
2023/04/27 02:54:11;;;;;;;11.68;9.25;;;2.00;99.90;;;;;;6187444;23;20112;-84
2023/04/27 02:56:36;;;;;;;15.07;10.40;;;1.30;99.90;;;;;;6187941;23;20012;-85
2023/04/27 02:59:02;;;;;;;14.30;10.27;;;2.30;99.90;;;;;;6214575;23;20009;-85
2023/04/27 03:01:28;;;;;;;13.07;10.20;;;2.40;99.90;;;;;;6187493;23;20024;-84
2023/04/27 03:03:54;;;;;;;14.20;10.05;;;1.00;99.90;;;;;;6162848;23;20032;-85
2023/04/27 03:06:19;;;;;;;13.70;10.00;;;1.00;99.90;;;;;;6187704;23;20020;-85
2023/04/27 03:08:45;;;;;;;18.85;11.00;;;1.00;99.90;;;;;;6162494;23;20009;-84
2023/04/27 03:11:11;;;;;;;13.88;10.40;;;1.80;99.90;;;;;;6186943;23;20017;-85
2023/04/27 03:13:40;;;;;;;11.82;9.43;;;1.60;99.90;;;;;;6187448;23;20009;-85
2023/04/27 03:16:10;;;;;;;16.45;10.02;;;1.80;99.90;;;;;;6187257;23;20067;-85
2023/04/27 03:18:36;;;;;;;13.73;10.98;;;1.00;99.90;;;;;;6213972;23;20322;-85
2023/04/27 03:21:10;;;;;;;18.63;10.73;;;1.00;99.90;;;;;;6161854;23;20013;-85
2023/04/27 03:23:36;;;;;;;16.67;10.82;;;1.00;99.90;;;;;;6162353;23;20030;-85
2023/04/27 03:26:09;;;;;;;14.70;10.55;;;1.50;99.90;;;;;;6161867;23;20094;-85
2023/04/27 03:28:35;;;;;;;14.43;11.15;;;1.10;99.90;;;;;;6186767;23;20070;-86
2023/04/27 03:31:05;;;;;;;15.85;10.40;;;0.90;99.90;;;;;;6186928;23;20036;-85
2023/04/27 03:33:30;;;;;;;15.80;11.55;;;0.90;99.90;;;;;;6186962;23;20012;-85
2023/04/27 03:35:57;;;;;;;16.88;10.57;;;0.80;99.90;;;;;;6162457;23;20063;-85
2023/04/27 03:38:26;;;;;;;14.43;10.82;;;0.80;99.90;;;;;;6187388;23;20012;-85
2023/04/27 03:40:52;;;;;;;15.25;10.55;;;0.80;99.90;;;;;;6162097;23;20008;-85
2023/04/27 03:43:21;;;;;;;15.55;10.43;;;0.80;99.90;;;;;;6161266;23;20008;-85
2023/04/27 03:45:47;;;;;;;16.17;10.70;;;0.70;99.90;;;;;;6186660;23;20020;-85
2023/04/27 03:48:13;;;;;;;14.07;10.98;;;0.70;99.90;;;;;;6161996;23;20511;-84
2023/04/27 03:50:40;;;;;;;17.15;11.18;;;0.70;99.90;;;;;;6187181;23;20130;-84
2023/04/27 03:53:06;;;;;;;17.30;11.57;;;0.70;99.90;;;;;;6186801;23;20016;-86
2023/04/27 03:55:32;;;;;;;15.75;11.75;;;0.70;99.90;;;;;;6186478;23;20024;-85
2023/04/27 03:57:57;;;;;;;17.80;11.35;;;0.70;99.90;;;;;;6186732;23;20432;-85
2023/04/27 04:00:23;;;;;;;19.45;12.55;;;0.70;99.90;;;;;;6186600;23;20059;-85
2023/04/27 04:02:50;;;;;;;15.32;11.45;;;0.70;99.90;;;;;;6186443;23;20335;-85
2023/04/27 04:05:17;;;;;;;16.45;11.32;;;0.90;99.90;;;;;;6213415;23;20311;-84
2023/04/27 04:07:43;;;;;;;15.40;11.13;;;0.60;99.90;;;;;;6161966;23;20082;-85
2023/04/27 04:10:09;;;;;;;16.17;11.80;;;0.60;99.90;;;;;;6185939;23;20092;-85
2023/04/27 04:12:35;;;;;;;17.10;11.23;;;0.60;99.90;;;;;;6157681;23;20025;-84
2023/04/27 04:15:06;;;;;;;17.20;12.52;;;0.60;99.90;;;;;;6186824;23;20013;-85
2023/04/27 04:17:32;;;;;;;15.23;11.93;;;0.60;99.90;;;;;;6162143;23;20455;-85
2023/04/27 04:19:59;;;;;;;17.42;11.85;;;0.60;99.90;;;;;;6186654;23;20388;-85
2023/04/27 04:22:25;;;;;;;17.27;12.07;;;0.60;99.90;;;;;;6186592;23;20044;-85
2023/04/27 04:24:51;;;;;;;17.08;12.30;;;0.60;99.90;;;;;;6186985;23;20020;-85
2023/04/27 04:27:17;;;;;;;18.25;12.93;;;0.60;99.90;;;;;;6185801;23;20012;-86
2023/04/27 04:29:42;;;;;;;20.35;13.63;;;0.60;99.90;;;;;;6186823;23;20320;-84
2023/04/27 04:32:08;;;;;;;18.17;13.68;;;0.70;99.90;;;;;;6186684;23;20012;-85
2023/04/27 04:34:35;;;;;;;18.00;12.73;;;0.70;99.90;;;;;;6212761;23;20017;-85
2023/04/27 04:37:00;;;;;;;17.60;13.70;;;0.70;99.90;;;;;;6186843;23;20080;-85
2023/04/27 04:39:30;;;;;;;18.30;12.98;;;0.70;99.90;;;;;;6212697;23;20387;-84
2023/04/27 04:41:56;;;;;;;18.58;13.02;;;0.80;99.90;;;;;;6212874;23;20009;-85
2023/04/27 04:44:22;;;;;;;19.45;13.68;;;1.40;99.90;;;;;;6186798;23;20008;-85
2023/04/27 04:46:47;;;;;;;21.50;14.13;;;1.20;99.90;;;;;;6213600;23;20482;-85
2023/04/27 04:49:13;;;;;;;21.88;14.40;;;1.00;99.90;;;;;;6186349;23;20023;-85
2023/04/27 04:51:43;;;;;;;23.13;14.23;;;2.30;99.90;;;;;;6213441;23;20044;-85
2023/04/27 04:54:09;;;;;;;25.90;13.93;;;2.40;99.90;;;;;;6186147;23;20047;-85
2023/04/27 04:56:35;;;;;;;19.75;13.77;;;2.50;99.90;;;;;;6212999;23;20277;-85
2023/04/27 04:59:01;;;;;;;18.88;13.50;;;2.80;99.90;;;;;;6214627;23;20012;-85
2023/04/27 05:01:26;;;;;;;21.20;13.30;;;1.70;99.90;;;;;;6163435;23;20035;-85
2023/04/27 05:03:52;;;;;;;22.05;13.93;;;1.80;99.90;;;;;;6215524;23;20090;-85
2023/04/27 05:06:18;;;;;;;18.52;13.20;;;2.90;99.90;;;;;;6188275;23;20018;-85
2023/04/27 05:08:44;;;;;;;19.85;12.52;;;2.70;99.90;;;;;;6187726;23;20087;-83
2023/04/27 05:11:10;;;;;;;18.45;13.38;;;3.10;99.90;;;;;;6162716;23;20016;-84
2023/04/27 05:13:39;;;;;;;19.85;13.63;;;2.00;99.90;;;;;;6163832;23;20047;-85
2023/04/27 05:16:06;;;;;;;20.70;12.77;;;1.90;99.90;;;;;;6215341;23;20056;-85
2023/04/27 05:18:33;;;;;;;17.10;13.00;;;2.10;99.90;;;;;;6163625;23;20075;-85
2023/04/27 05:20:59;;;;;;;20.65;14.15;;;2.20;99.90;;;;;;6188430;23;20456;-85
2023/04/27 05:23:24;;;;;;;20.90;13.30;;;2.30;99.90;;;;;;6215203;23;20066;-85
2023/04/27 05:25:50;;;;;;;16.48;12.80;;;2.50;99.90;;;;;;6187578;23;20008;-85
2023/04/27 05:28:16;;;;;;;18.70;12.20;;;3.70;99.90;;;;;;6215141;23;20008;-85
2023/04/27 05:30:42;;;;;;;17.30;12.45;;;2.90;99.90;;;;;;6188862;23;20303;-86
2023/04/27 05:33:07;;;;;;;16.10;12.50;;;4.10;99.90;;;;;;6163651;23;20016;-85
2023/04/27 05:35:34;;;;;;;20.05;13.02;;;4.40;99.90;;;;;;6188137;23;20051;-85
2023/04/27 05:37:59;;;;;;;15.32;11.45;;;4.60;99.90;;;;;;6163159;23;20419;-86
2023/04/27 05:40:25;;;;;;;16.40;11.98;;;5.50;99.90;;;;;;6162965;23;20024;-86
2023/04/27 05:42:51;;;;;;;15.65;11.38;;;5.60;99.90;;;;;;6189115;23;20015;-85
2023/04/27 05:45:17;;;;;;;13.25;9.23;;;6.70;99.90;;;;;;6188524;23;20016;-85
2023/04/27 05:47:43;;;;;;;11.85;8.55;;;8.70;99.90;;;;;;6214737;23;20107;-85
2023/04/27 05:50:09;;;;;;;11.73;7.53;;;8.90;99.90;;;;;;6163260;23;20474;-85
2023/04/27 05:52:35;;;;;;;11.30;7.45;;;10.00;99.90;;;;;;6163340;23;20036;-85
2023/04/27 05:55:00;;;;;;;12.88;7.32;;;10.90;99.90;;;;;;6188143;23;20028;-86
2023/04/27 05:57:26;;;;;;;11.40;6.57;;;11.40;99.90;;;;;;6214765;23;20053;-85
2023/04/27 05:59:52;;;;;;;12.40;5.80;;;12.10;99.90;;;;;;6163432;23;20454;-85
2023/04/27 06:02:18;;;;;;;12.50;6.03;;;12.40;99.90;;;;;;6188840;23;20015;-86
2023/04/27 06:04:45;;;;;;;8.95;5.30;;;12.90;99.90;;;;;;6188797;23;20091;-86
2023/04/27 06:07:12;;;;;;;8.02;4.78;;;13.80;99.90;;;;;;6188077;23;20443;-85
2023/04/27 06:09:38;;;;;;;7.18;4.78;;;13.40;99.90;;;;;;6214641;23;20009;-86
2023/04/27 06:12:07;;;;;;;8.52;5.05;;;14.00;99.90;;;;;;6163246;23;20290;-86
2023/04/27 06:14:34;;;;;;;7.93;3.88;;;14.40;99.90;;;;;;6214302;23;20016;-87
2023/04/27 06:17:01;;;;;;;10.07;4.25;;;14.60;99.90;;;;;;6187383;23;20422;-86
2023/04/27 06:19:26;;;;;;;6.53;4.10;;;15.00;99.90;;;;;;6161883;23;20095;-86
2023/04/27 06:21:55;;;;;;;6.78;3.90;;;15.30;99.90;;;;;;6161646;23;20012;-86
2023/04/27 06:24:21;;;;;;;5.50;3.55;;;15.80;99.90;;;;;;6160934;23;20017;-86
2023/04/27 06:26:49;;;;;;;5.40;3.45;;;16.20;99.90;;;;;;6213543;23;20087;-86
2023/04/27 06:29:15;;;;;;;6.15;3.28;;;16.70;98.40;;;;;;6186746;23;20070;-86
2023/04/27 06:31:41;;;;;;;6.75;3.17;;;16.60;98.90;;;;;;6213269;23;20008;-86
2023/04/27 06:34:06;;;;;;;7.28;3.40;;;16.40;95.90;;;;;;6186178;23;20047;-86
2023/04/27 06:36:32;;;;;;;7.22;3.13;;;17.00;96.10;;;;;;6186390;23;20009;-86
2023/04/27 06:38:58;;;;;;;6.03;3.22;;;17.20;96.60;;;;;;6185620;23;20029;-86
2023/04/27 06:41:25;;;;;;;7.70;3.20;;;17.10;95.40;;;;;;6187106;23;20020;-86
2023/04/27 06:43:51;;;;;;;5.55;2.97;;;17.50;96.10;;;;;;6161575;23;20414;-86
2023/04/27 06:46:17;;;;;;;6.13;3.03;;;17.50;95.30;;;;;;6186300;23;20027;-86
2023/04/27 06:48:42;;;;;;;4.90;2.75;;;17.60;95.70;;;;;;6213243;23;20012;-86
2023/04/27 06:51:08;;;;;;;6.50;2.83;;;18.10;94.00;;;;;;6160965;23;20328;-86
2023/04/27 06:53:34;;;;;;;6.72;2.88;;;18.20;93.30;;;;;;6161120;23;20009;-86
2023/04/27 06:56:00;;;;;;;6.70;2.80;;;18.10;92.80;;;;;;6186785;23;20092;-86
2023/04/27 06:58:26;;;;;;;5.57;2.50;;;17.60;93.10;;;;;;6186822;23;20333;-86
2023/04/27 07:00:52;;;;;;;7.18;2.80;;;16.30;93.30;;;;;;6161949;23;20016;-86
2023/04/27 07:03:19;;;;;;;7.45;3.08;;;15.30;94.50;;;;;;6186178;23;20412;-86
2023/04/27 07:05:45;;;;;;;6.85;2.45;;;14.70;95.40;;;;;;6185556;23;20016;-86
2023/04/27 07:08:11;;;;;;;6.75;2.55;;;14.30;96.90;;;;;;6186434;23;20479;-86
2023/04/27 07:10:37;;;;;;;6.07;2.33;;;13.20;97.50;;;;;;6186081;23;20096;-86
2023/04/27 07:13:03;;;;;;;5.78;2.67;;;13.00;98.50;;;;;;6186072;23;20063;-86
2023/04/27 07:15:30;;;;;;;4.65;2.40;;;12.40;99.90;;;;;;6212912;23;20016;-86
2023/04/27 07:17:56;;;;;;;7.15;2.40;;;12.00;99.90;;;;;;6186302;23;20009;-86
2023/04/27 07:20:22;;;;;;;6.20;3.53;;;11.80;99.90;;;;;;6160402;23;20517;-86
2023/04/27 07:22:48;;;;;;;5.97;2.65;;;11.50;99.90;;;;;;6161436;23;20013;-86
2023/04/27 07:25:13;;;;;;;5.18;2.33;;;11.90;99.90;;;;;;6186177;23;20043;-86
2023/04/27 07:27:40;;;;;;;5.13;2.50;;;11.70;99.90;;;;;;6186563;23;20012;-87
2023/04/27 07:30:08;;;;;;;5.05;2.30;;;12.00;99.90;;;;;;6186674;23;20085;-86
2023/04/27 07:32:38;;;;;;;6.32;2.25;;;12.90;99.90;;;;;;6186177;23;20038;-86
2023/04/27 07:35:04;;;;;;;6.88;2.53;;;13.90;99.60;;;;;;6185828;23;20012;-86
2023/04/27 07:37:30;;;;;;;5.57;2.30;;;14.70;97.20;;;;;;6186494;23;20315;-87
2023/04/27 07:39:58;;;;;;;4.47;2.35;;;15.50;97.30;;;;;;6186423;23;20012;-86
2023/04/27 07:42:24;;;;;;;4.97;2.03;;;16.00;96.00;;;;;;6212475;23;20447;-86
2023/04/27 07:44:51;;;;;;;4.57;2.03;;;16.10;93.70;;;;;;6212901;23;20043;-86
2023/04/27 07:47:17;;;;;;;5.55;2.22;;;16.40;94.80;;;;;;6161133;23;20040;-86
2023/04/27 07:49:47;;;;;;;6.38;2.20;;;16.70;92.10;;;;;;6160389;23;20051;-86
2023/04/27 07:52:13;;;;;;;5.70;2.10;;;17.00;93.20;;;;;;6186102;23;20016;-86
2023/04/27 07:54:39;;;;;;;7.72;2.33;;;16.80;92.00;;;;;;6185985;23;20021;-86
2023/04/27 07:57:11;;;;;;;9.20;2.08;;;16.10;92.40;;;;;;6212991;23;20080;-86
2023/04/27 07:59:37;;;;;;;6.28;2.38;;;15.50;93.00;;;;;;6161399;23;20008;-86
2023/04/27 08:02:02;;;;;;;5.03;2.25;;;14.50;93.50;;;;;;6186328;23;20354;-86
2023/04/27 08:04:28;;;;;;;5.95;2.05;;;13.90;94.50;;;;;;6160515;23;20108;-86
2023/04/27 08:06:54;;;;;;;5.75;1.98;;;13.80;95.50;;;;;;6161174;23;20016;-86
2023/04/27 08:09:20;;;;;;;4.50;1.80;;;14.50;95.60;;;;;;6185733;23;20016;-86
2023/04/27 08:11:45;;;;;;;5.40;2.10;;;15.20;93.80;;;;;;6160687;23;20070;-86
2023/04/27 08:14:12;;;;;;;7.55;2.25;;;16.00;93.20;;;;;;6186061;23;20052;-86
2023/04/27 08:16:42;;;;;;;8.02;2.53;;;16.40;92.80;;;;;;6185924;23;20016;-86
2023/04/27 08:19:08;;;;;;;5.88;2.15;;;16.50;90.90;;;;;;6185392;23;20023;-86
2023/04/27 08:21:35;;;;;;;4.95;2.00;;;16.90;91.00;;;;;;6160755;23;20015;-86
2023/04/27 08:24:01;;;;;;;6.18;2.05;;;17.30;89.90;;;;;;6186114;23;20414;-85
2023/04/27 08:26:27;;;;;;;8.73;2.40;;;17.60;90.50;;;;;;6185614;23;20083;-86
2023/04/27 08:28:59;;;;;;;6.13;2.38;;;17.90;90.20;;;;;;6212653;23;20360;-86
2023/04/27 08:31:25;;;;;;;8.40;2.30;;;18.40;89.20;;;;;;6212443;23;20012;-86
2023/04/27 08:33:52;;;;;;;4.07;2.10;;;18.30;85.40;;;;;;6186032;23;20781;-86
2023/04/27 08:36:24;;;;;;;5.78;2.30;;;18.00;88.40;;;;;;6187583;23;20155;-86
2023/04/27 08:38:50;;;;;;;9.25;2.83;;;18.10;88.50;;;;;;6187434;23;20056;-86
2023/04/27 08:41:23;;;;;;;7.60;2.10;;;18.10;86.20;;;;;;6187509;23;20030;-86
2023/04/27 08:43:50;;;;;;;4.28;2.22;;;17.40;86.60;;;;;;6187306;23;20020;-86
2023/04/27 08:46:22;;;;;;;6.05;2.63;;;17.50;86.00;;;;;;6162638;23;20016;-86
2023/04/27 08:48:55;;;;;;;5.28;2.28;;;17.60;87.40;;;;;;6162478;23;20067;-86
2023/04/27 08:51:21;;;;;;;5.35;2.35;;;17.70;84.20;;;;;;6214592;23;20430;-86
2023/04/27 08:53:53;;;;;;;7.38;2.35;;;17.70;85.40;;;;;;6162595;23;20017;-86
2023/04/27 08:56:22;;;;;;;4.45;2.35;;;17.40;87.00;;;;;;6162558;23;20024;-86
2023/04/27 08:58:48;;;;;;;5.40;2.75;;;17.00;88.00;;;;;;6187381;23;20505;-85
2023/04/27 09:01:14;;;;;;;9.68;2.60;;;16.60;85.60;;;;;;6214530;23;20021;-86
2023/04/27 09:03:40;;;;;;;4.95;2.47;;;16.10;86.80;;;;;;6186714;23;20074;-86
2023/04/27 09:06:07;;;;;;;4.88;2.25;;;15.70;90.30;;;;;;6187716;23;20012;-86
2023/04/27 09:08:44;;;;;;;5.70;2.70;;;15.50;90.70;;;;;;6187187;23;20012;-86
2023/04/27 09:11:10;;;;;;;4.65;2.40;;;15.40;90.50;;;;;;6187209;23;20066;-86
2023/04/27 09:13:43;;;;;;;7.00;2.55;;;15.40;90.40;;;;;;6186955;23;20017;-85
2023/04/27 09:16:11;;;;;;;7.53;2.70;;;15.30;88.80;;;;;;6186522;23;20044;-86
2023/04/27 09:18:42;;;;;;;5.15;2.78;;;15.40;90.00;;;;;;6214200;23;20013;-86
2023/04/27 09:21:08;;;;;;;5.55;2.70;;;15.40;88.40;;;;;;6187251;23;20013;-86
2023/04/27 09:23:35;;;;;;;6.05;2.60;;;15.40;89.80;;;;;;6187311;23;20060;-86
2023/04/27 09:26:09;;;;;;;5.90;2.80;;;15.30;89.00;;;;;;6187257;23;20016;-86
2023/04/27 09:28:40;;;;;;;4.65;3.10;;;15.20;88.50;;;;;;6187047;23;20428;-86
2023/04/27 09:31:07;;;;;;;4.57;2.83;;;15.10;88.60;;;;;;6186711;23;20014;-86
2023/04/27 09:33:37;;;;;;;6.75;2.70;;;15.00;90.60;;;;;;6162118;23;20017;-86
2023/04/27 09:36:04;;;;;;;5.70;2.90;;;15.00;90.40;;;;;;6162038;23;20012;-86
2023/04/27 09:38:31;;;;;;;9.20;3.60;;;15.40;88.80;;;;;;6187319;23;20015;-86
2023/04/27 09:40:57;;;;;;;7.75;3.50;;;15.50;90.50;;;;;;6213698;23;20506;-86
2023/04/27 09:43:23;;;;;;;6.63;3.10;;;15.50;88.50;;;;;;6186906;23;20040;-86
2023/04/27 09:45:50;;;;;;;5.55;2.88;;;15.60;90.10;;;;;;6186747;23;20017;-86
2023/04/27 09:48:17;;;;;;;9.48;3.58;;;15.40;90.20;;;;;;6213743;23;20036;-87
2023/04/27 09:50:44;;;;;;;7.80;4.30;;;15.10;87.20;;;;;;6161983;23;20262;-86
2023/04/27 09:53:33;;;;;;;7.65;4.10;;;14.70;87.60;;;;;;6187216;23;20027;-86
2023/04/27 09:56:32;;;;;;;9.70;4.57;;;14.50;87.50;;;;;;6162037;23;20103;-87
2023/04/27 09:59:22;;;;;;;9.93;5.28;;;14.60;90.60;;;;;;6213807;23;20013;-86
2023/04/27 10:01:53;;;;;;;6.60;4.10;;;14.40;87.70;;;;;;6186372;23;20013;-85
2023/04/27 10:04:31;;;;;;;6.38;3.55;;;14.20;86.80;;;;;;6186698;23;20016;-86
2023/04/27 10:07:03;;;;;;;8.73;3.70;;;14.30;90.60;;;;;;6187116;23;20017;-87
2023/04/27 10:09:45;;;;;;;8.95;3.83;;;14.50;91.50;;;;;;6162360;23;20020;-86
2023/04/27 10:12:22;;;;;;;8.70;4.97;;;14.70;87.90;;;;;;6213069;23;20062;-86
2023/04/27 10:14:49;;;;;;;7.57;4.43;;;14.90;87.60;;;;;;6186246;23;20023;-86
2023/04/27 10:17:16;;;;;;;8.30;4.35;;;14.90;85.90;;;;;;6162120;23;20074;-87
2023/04/27 10:19:53;;;;;;;7.20;4.05;;;15.30;89.60;;;;;;6187169;23;20059;-86
2023/04/27 10:22:19;;;;;;;7.57;3.70;;;16.10;90.60;;;;;;6188376;23;20022;-86
2023/04/27 10:24:48;;;;;;;7.30;3.97;;;16.10;90.30;;;;;;6187736;23;20304;-86
2023/04/27 10:27:18;;;;;;;7.13;4.00;;;16.10;89.10;;;;;;6187183;23;20021;-86
2023/04/27 10:29:45;;;;;;;9.15;3.95;;;16.30;86.60;;;;;;6162335;23;20351;-86
2023/04/27 10:32:22;;;;;;;7.85;4.03;;;16.20;90.10;;;;;;6162866;23;20070;-86
2023/04/27 10:34:49;;;;;;;7.90;3.90;;;15.90;82.60;;;;;;6187845;23;20097;-86
2023/04/27 10:37:19;;;;;;;7.15;3.90;;;16.00;85.60;;;;;;6163388;23;20066;-86
2023/04/27 10:39:46;;;;;;;10.60;4.28;;;15.70;83.30;;;;;;6162725;23;20008;-86
2023/04/27 10:42:11;;;;;;;6.18;3.90;;;15.20;83.10;;;;;;6163277;23;20481;-86
2023/04/27 10:44:38;;;;;;;8.55;3.88;;;15.30;86.00;;;;;;6188207;23;20017;-86
2023/04/27 10:47:14;;;;;;;6.10;4.07;;;15.10;84.90;;;;;;6215395;23;20017;-86
2023/04/27 10:49:40;;;;;;;7.25;4.10;;;15.00;85.00;;;;;;6215033;23;20107;-86
2023/04/27 10:52:06;;;;;;;8.25;4.03;;;15.20;83.60;;;;;;6188130;23;20012;-86
2023/04/27 10:54:32;;;;;;;8.13;3.50;;;15.20;86.60;;;;;;6215143;23;20020;-86
2023/04/27 10:57:03;;;;;;;7.03;3.63;;;14.70;83.20;;;;;;6187547;23;20052;-86
2023/04/27 10:59:28;;;;;;;7.65;3.95;;;14.50;84.60;;;;;;6187351;23;20063;-86
2023/04/27 11:01:54;;;;;;;7.95;4.55;;;14.10;83.40;;;;;;6187798;23;20320;-86
2023/04/27 11:04:20;;;;;;;7.50;3.45;;;13.60;83.60;;;;;;6162285;23;20291;-86
2023/04/27 11:06:45;;;;;;;8.73;3.65;;;13.30;86.50;;;;;;6187097;23;20009;-86
2023/04/27 11:09:12;;;;;;;7.80;4.28;;;13.50;90.80;;;;;;6162430;23;20008;-86
2023/04/27 11:11:44;;;;;;;7.05;4.25;;;13.60;90.60;;;;;;6161492;23;20048;-86
2023/04/27 11:14:15;;;;;;;8.48;4.30;;;13.70;90.20;;;;;;6186991;23;20008;-86
2023/04/27 11:16:46;;;;;;;7.68;4.60;;;13.60;88.80;;;;;;6189836;23;20016;-86
2023/04/27 11:19:11;;;;;;;8.25;4.00;;;13.40;87.90;;;;;;6189493;23;20328;-86
2023/04/27 11:21:37;;;;;;;11.43;4.55;;;13.40;88.60;;;;;;6189096;23;20009;-86
2023/04/27 11:24:07;;;;;;;7.00;4.03;;;13.50;89.00;;;;;;6189039;23;20051;-86
2023/04/27 11:26:33;;;;;;;7.45;4.22;;;13.60;89.10;;;;;;6163266;23;20048;-85
2023/04/27 11:29:00;;;;;;;8.88;3.78;;;13.50;89.40;;;;;;6188811;23;20459;-85
2023/04/27 11:31:36;;;;;;;8.57;4.18;;;13.50;87.90;;;;;;6163284;23;20012;-85
2023/04/27 11:34:02;;;;;;;8.27;4.20;;;13.50;90.10;;;;;;6187137;23;20013;-86
2023/04/27 11:36:28;;;;;;;10.05;4.60;;;13.70;90.90;;;;;;6162609;23;20418;-86
2023/04/27 11:38:58;;;;;;;10.43;4.28;;;13.80;88.70;;;;;;6188079;23;20011;-86
2023/04/27 11:41:36;;;;;;;7.38;4.70;;;13.80;90.50;;;;;;6187603;23;20020;-86
2023/04/27 11:44:06;;;;;;;10.38;4.35;;;14.00;89.80;;;;;;6188128;23;20005;-86
2023/04/27 11:46:35;;;;;;;10.27;4.65;;;14.10;89.40;;;;;;6162868;23;20020;-86
2023/04/27 11:49:05;;;;;;;12.75;4.47;;;14.00;87.80;;;;;;6187442;23;20012;-86
2023/04/27 11:51:32;;;;;;;8.88;4.20;;;14.30;85.30;;;;;;6187555;23;20038;-86
2023/04/27 11:54:16;;;;;;;7.00;3.97;;;14.20;89.60;;;;;;6187939;23;20009;-86
2023/04/27 11:56:42;;;;;;;10.70;3.95;;;14.40;90.00;;;;;;6187199;23;20036;-86
2023/04/27 11:59:26;;;;;;;9.13;4.38;;;14.70;91.30;;;;;;6187705;23;20011;-86
2023/04/27 12:01:52;;;;;;;10.25;4.50;;;14.80;88.10;;;;;;6214532;23;20009;-85
2023/04/27 12:04:17;;;;;;;7.38;4.60;;;15.00;87.70;;;;;;6214095;23;20086;-85
2023/04/27 12:06:43;;;;;;;11.55;4.97;;;14.90;86.30;;;;;;6162680;23;20071;-86
2023/04/27 12:09:09;;;;;;;9.35;4.10;;;14.90;88.20;;;;;;6189125;23;20083;-86
2023/04/27 12:11:34;;;;;;;6.10;4.35;;;14.90;87.90;;;;;;6188705;23;20011;-85
2023/04/27 12:14:01;;;;;;;6.95;4.28;;;14.80;90.70;;;;;;6189130;23;20017;-86
2023/04/27 12:16:27;;;;;;;7.78;4.43;;;14.80;90.00;;;;;;6189323;23;20449;-85
2023/04/27 12:18:52;;;;;;;7.03;4.40;;;14.60;86.80;;;;;;6188963;23;20108;-86
2023/04/27 12:21:18;;;;;;;8.80;4.25;;;14.20;87.30;;;;;;6189942;23;20028;-86
2023/04/27 12:23:43;;;;;;;8.48;4.72;;;14.60;86.90;;;;;;6164825;23;20439;-85
2023/04/27 12:26:12;;;;;;;9.38;5.18;;;14.40;88.70;;;;;;6163915;23;20103;-86
2023/04/27 12:28:38;;;;;;;10.18;5.38;;;14.50;90.40;;;;;;6189336;23;20020;-85
2023/04/27 12:31:04;;;;;;;9.73;4.97;;;14.20;90.90;;;;;;6216153;23;20327;-85
2023/04/27 12:33:30;;;;;;;9.77;4.90;;;14.20;91.00;;;;;;6189010;23;20024;-85
2023/04/27 12:35:59;;;;;;;10.70;4.80;;;14.30;91.40;;;;;;6163536;23;20013;-85
2023/04/27 12:38:25;;;;;;;7.07;4.35;;;13.80;87.80;;;;;;6164246;23;20087;-85
2023/04/27 12:40:51;;;;;;;9.38;4.97;;;13.80;88.90;;;;;;6215176;23;20430;-86
2023/04/27 12:43:16;;;;;;;9.63;4.85;;;13.70;90.40;;;;;;6163798;23;20012;-86